Time;durP1;ratioP1;P1;durP2;ratioP2;P2;SDS_P1;SDS_P2;PMS_P1;PMS_P2;Temp;Humidity;BMP_temperature;BMP_pressure;BME280_temperature;BME280_humidity;BME280_pressure;Samples;Min_cycle;Max_cycle;Signal;HPM_P1;HPM_P2
2023/12/07 00:00:32;;;;;;;8.87;7.40;;;8.90;59.30;;;;;;5044643;28;20278;-56
2023/12/07 00:02:59;;;;;;;10.83;8.27;;;8.90;59.20;;;;;;5043914;28;20443;-55
2023/12/07 00:05:25;;;;;;;9.30;6.83;;;8.90;59.10;;;;;;5046278;28;20184;-54
2023/12/07 00:07:50;;;;;;;10.60;7.63;;;8.90;59.00;;;;;;5043120;28;20479;-53
2023/12/07 00:10:16;;;;;;;10.37;7.30;;;8.90;58.80;;;;;;5047546;28;20215;-53
2023/12/07 00:12:41;;;;;;;12.37;8.43;;;9.00;59.40;;;;;;5045682;28;20215;-57
2023/12/07 00:15:07;;;;;;;11.63;8.30;;;9.00;58.80;;;;;;5046968;28;20227;-55
2023/12/07 00:17:33;;;;;;;13.87;7.93;;;9.00;58.60;;;;;;5040827;28;20193;-54
2023/12/07 00:19:59;;;;;;;15.43;8.90;;;9.00;58.80;;;;;;5048050;28;20455;-55
2023/12/07 00:22:26;;;;;;;9.73;8.47;;;9.00;58.80;;;;;;5047946;28;20226;-53
2023/12/07 00:24:52;;;;;;;11.70;9.00;;;9.00;59.00;;;;;;5047435;28;20435;-54
2023/12/07 00:27:17;;;;;;;12.80;9.37;;;9.00;59.00;;;;;;5044510;28;20972;-53
2023/12/07 00:29:43;;;;;;;9.20;8.00;;;9.00;59.00;;;;;;5044879;28;20204;-55
2023/12/07 00:32:09;;;;;;;14.57;8.67;;;9.00;59.10;;;;;;5047583;28;20307;-54
2023/12/07 00:34:34;;;;;;;12.73;9.53;;;9.00;59.10;;;;;;5047302;28;20570;-56
2023/12/07 00:37:00;;;;;;;11.10;8.20;;;9.00;59.30;;;;;;5047005;28;20654;-54
2023/12/07 00:39:26;;;;;;;13.47;10.67;;;9.00;59.40;;;;;;5045603;28;20212;-51
2023/12/07 00:41:52;;;;;;;12.47;9.03;;;8.70;59.50;;;;;;5046954;28;20181;-53
2023/12/07 00:44:18;;;;;;;11.20;9.10;;;8.60;60.60;;;;;;5047070;28;20788;-57
2023/12/07 00:46:43;;;;;;;11.83;8.40;;;8.60;60.50;;;;;;5048194;28;20423;-56
2023/12/07 00:49:09;;;;;;;13.67;8.77;;;8.70;60.40;;;;;;5047141;28;20207;-52
2023/12/07 00:51:35;;;;;;;13.27;8.93;;;8.80;60.30;;;;;;5046262;28;20192;-54
2023/12/07 00:54:00;;;;;;;12.10;8.90;;;8.90;60.00;;;;;;5045264;28;20451;-52
2023/12/07 00:56:26;;;;;;;11.60;8.93;;;8.90;59.80;;;;;;5042965;28;20221;-54
2023/12/07 00:58:52;;;;;;;15.10;10.50;;;8.90;59.70;;;;;;5043795;28;20218;-54
2023/12/07 01:01:17;;;;;;;15.60;8.50;;;9.00;59.60;;;;;;5043756;28;20280;-52
2023/12/07 01:03:43;;;;;;;14.10;9.47;;;9.00;59.50;;;;;;5041326;28;20629;-54
2023/12/07 01:06:11;;;;;;;8.67;7.60;;;9.00;59.40;;;;;;5043382;28;20233;-51
2023/12/07 01:08:37;;;;;;;10.93;8.43;;;8.90;59.40;;;;;;5045764;28;20192;-55
2023/12/07 01:11:03;;;;;;;12.77;9.07;;;9.00;59.40;;;;;;5042591;28;20447;-52
2023/12/07 01:13:29;;;;;;;11.20;9.40;;;9.00;59.40;;;;;;5042775;28;20466;-55
2023/12/07 01:15:55;;;;;;;9.03;7.37;;;8.70;59.10;;;;;;5045322;28;20439;-53
2023/12/07 01:18:20;;;;;;;11.63;8.53;;;8.60;59.80;;;;;;5040753;28;20320;-53
2023/12/07 01:20:46;;;;;;;11.13;8.27;;;8.70;60.10;;;;;;5044827;28;20514;-51
2023/12/07 01:23:12;;;;;;;8.67;7.60;;;8.70;60.00;;;;;;5046434;28;20185;-52
2023/12/07 01:25:37;;;;;;;10.33;7.70;;;8.70;59.90;;;;;;5047326;28;20435;-55
2023/12/07 01:28:03;;;;;;;11.90;8.77;;;8.80;59.80;;;;;;5044150;28;20191;-53
2023/12/07 01:30:29;;;;;;;11.87;8.73;;;8.90;59.70;;;;;;5045822;28;20200;-52
2023/12/07 01:32:55;;;;;;;11.57;8.33;;;8.90;60.00;;;;;;5045468;28;20883;-54
2023/12/07 01:35:20;;;;;;;12.80;8.70;;;8.90;59.80;;;;;;5045189;28;20245;-54
2023/12/07 01:37:46;;;;;;;11.80;7.90;;;8.90;59.60;;;;;;5042973;28;20439;-54
2023/12/07 01:40:12;;;;;;;16.00;8.97;;;8.90;59.50;;;;;;5042617;28;20212;-55
2023/12/07 01:42:38;;;;;;;12.20;8.80;;;8.90;59.50;;;;;;5045821;28;21680;-56
2023/12/07 01:45:05;;;;;;;9.60;7.63;;;8.90;59.40;;;;;;5050644;28;20189;-56
2023/12/07 01:47:32;;;;;;;14.33;8.13;;;8.90;59.60;;;;;;5045788;28;20479;-52
2023/12/07 01:49:59;;;;;;;11.63;8.03;;;8.90;59.50;;;;;;5046993;28;20463;-56
2023/12/07 01:52:28;;;;;;;10.57;8.43;;;9.00;59.40;;;;;;5047257;28;20489;-55
2023/12/07 01:54:54;;;;;;;9.93;8.37;;;9.00;59.30;;;;;;5048100;28;20435;-52
2023/12/07 01:57:20;;;;;;;11.40;8.30;;;8.90;59.40;;;;;;5047979;28;20431;-55
2023/12/07 01:59:46;;;;;;;8.83;7.87;;;8.90;59.50;;;;;;5043906;28;20283;-55
2023/12/07 02:02:12;;;;;;;13.73;8.33;;;9.00;59.60;;;;;;5044087;28;20537;-56
2023/12/07 02:04:38;;;;;;;8.63;7.33;;;9.00;59.70;;;;;;5048813;28;20207;-54
2023/12/07 02:07:04;;;;;;;12.70;8.77;;;9.00;59.50;;;;;;5047740;28;20442;-55
2023/12/07 02:09:30;;;;;;;13.80;9.13;;;9.00;59.30;;;;;;5046661;28;20470;-54
2023/12/07 02:11:55;;;;;;;13.60;7.90;;;9.00;59.30;;;;;;5047988;28;20443;-56
2023/12/07 02:14:21;;;;;;;9.43;8.43;;;8.90;59.30;;;;;;5049907;28;20188;-52
2023/12/07 02:17:19;;;;;;;10.20;7.97;;;8.90;59.50;;;;;;5047324;28;20250;-53
2023/12/07 02:20:15;;;;;;;8.43;7.53;;;8.80;59.60;;;;;;5027875;28;20784;-57
2023/12/07 02:22:52;;;;;;;8.97;7.07;;;8.70;60.30;;;;;;5035755;28;20435;-54
2023/12/07 02:25:23;;;;;;;11.93;7.60;;;8.50;60.90;;;;;;5041375;28;20442;-53
2023/12/07 02:27:49;;;;;;;10.40;7.10;;;8.40;61.60;;;;;;5047096;28;20478;-55
2023/12/07 02:30:15;;;;;;;10.37;8.00;;;8.50;61.70;;;;;;5046632;28;20482;-56
2023/12/07 02:32:42;;;;;;;10.13;8.00;;;8.50;61.40;;;;;;5049618;28;20240;-53
2023/12/07 02:35:09;;;;;;;8.30;7.10;;;8.50;61.70;;;;;;5048732;28;20526;-53
2023/12/07 02:37:51;;;;;;;10.23;7.70;;;8.50;61.80;;;;;;5047168;28;20988;-54
2023/12/07 02:40:21;;;;;;;11.33;8.00;;;8.60;61.70;;;;;;5044460;28;20505;-54
2023/12/07 02:42:48;;;;;;;11.63;7.90;;;8.70;61.40;;;;;;5044069;28;21321;-55
2023/12/07 02:45:14;;;;;;;12.73;8.10;;;8.70;61.40;;;;;;5048109;28;20834;-55
2023/12/07 02:47:40;;;;;;;9.83;8.30;;;8.60;61.30;;;;;;5042660;28;20470;-56
2023/12/07 02:50:07;;;;;;;12.80;8.10;;;8.50;61.30;;;;;;5047361;28;20447;-54
2023/12/07 02:52:34;;;;;;;11.87;8.20;;;8.60;61.50;;;;;;5042815;28;20212;-53
2023/12/07 02:54:59;;;;;;;10.23;8.00;;;8.50;61.40;;;;;;5046684;28;20778;-53
2023/12/07 02:57:25;;;;;;;9.50;7.63;;;8.50;61.60;;;;;;5047322;28;20431;-54
2023/12/07 02:59:50;;;;;;;9.10;8.10;;;8.50;61.60;;;;;;5045626;28;20201;-55
2023/12/07 03:02:16;;;;;;;11.80;8.33;;;8.50;61.30;;;;;;5044995;28;20212;-53
2023/12/07 03:04:41;;;;;;;11.33;8.60;;;8.30;61.60;;;;;;5043753;28;20279;-54
2023/12/07 03:07:07;;;;;;;9.00;8.10;;;8.10;62.30;;;;;;5046275;28;20200;-56
2023/12/07 03:09:33;;;;;;;10.67;7.70;;;8.20;62.40;;;;;;5046126;28;20200;-52
2023/12/07 03:11:58;;;;;;;11.33;8.20;;;8.30;62.30;;;;;;5044860;28;20184;-54
2023/12/07 03:14:24;;;;;;;14.47;9.50;;;8.30;62.20;;;;;;5044456;28;20216;-53
2023/12/07 03:16:49;;;;;;;11.40;9.60;;;8.30;62.00;;;;;;5047330;28;20188;-56
2023/12/07 03:19:15;;;;;;;12.27;8.87;;;8.30;61.80;;;;;;5047893;28;20257;-51
2023/12/07 03:21:42;;;;;;;12.93;9.10;;;8.20;61.80;;;;;;5046442;28;20276;-54
2023/12/07 03:24:08;;;;;;;10.80;8.70;;;8.20;62.00;;;;;;5049253;28;20193;-52
2023/12/07 03:26:34;;;;;;;9.77;7.87;;;8.20;61.90;;;;;;5042909;28;20496;-52
2023/12/07 03:29:00;;;;;;;10.07;8.63;;;8.30;61.90;;;;;;5046440;28;21121;-53
2023/12/07 03:31:26;;;;;;;12.03;8.00;;;8.10;61.80;;;;;;5047117;28;20435;-52
2023/12/07 03:33:53;;;;;;;10.57;8.20;;;8.00;62.00;;;;;;5048277;28;20478;-55
2023/12/07 03:36:18;;;;;;;9.80;8.10;;;8.10;62.10;;;;;;5044573;28;20434;-51
2023/12/07 03:38:44;;;;;;;11.87;9.13;;;8.10;61.80;;;;;;5041229;28;21192;-55
2023/12/07 03:41:09;;;;;;;15.83;8.50;;;8.00;61.70;;;;;;5046785;28;20283;-55
2023/12/07 03:43:35;;;;;;;12.33;9.53;;;8.10;61.70;;;;;;5045707;28;20185;-55
2023/12/07 03:46:04;;;;;;;12.30;9.70;;;8.10;61.60;;;;;;5046721;28;20668;-53
2023/12/07 03:48:30;;;;;;;10.20;8.80;;;8.10;61.60;;;;;;5044265;28;20232;-54
2023/12/07 03:50:55;;;;;;;10.60;8.93;;;8.00;61.20;;;;;;5047996;28;20524;-54
2023/12/07 03:53:21;;;;;;;12.93;9.20;;;8.00;61.60;;;;;;5043936;28;20207;-53
2023/12/07 03:55:47;;;;;;;10.60;7.77;;;8.00;61.60;;;;;;5044531;28;20744;-52
2023/12/07 03:58:13;;;;;;;12.43;9.77;;;7.90;61.90;;;;;;5045053;28;20184;-54
2023/12/07 04:00:39;;;;;;;11.20;9.43;;;7.80;62.50;;;;;;5041632;28;20936;-55
2023/12/07 04:03:04;;;;;;;14.10;9.23;;;7.80;62.80;;;;;;5043329;28;20462;-51
2023/12/07 04:05:31;;;;;;;11.53;9.37;;;7.90;62.70;;;;;;5048078;28;20216;-51
2023/12/07 04:07:56;;;;;;;11.40;9.03;;;7.90;62.60;;;;;;5045169;28;20227;-52
2023/12/07 04:10:22;;;;;;;12.40;8.90;;;7.90;62.40;;;;;;5045678;28;20505;-53
2023/12/07 04:12:47;;;;;;;11.37;10.00;;;7.90;62.40;;;;;;5042382;28;20212;-53
2023/12/07 04:15:13;;;;;;;13.43;9.47;;;7.90;62.00;;;;;;5045284;28;20280;-54
2023/12/07 04:17:38;;;;;;;11.83;9.73;;;7.90;62.00;;;;;;5047765;28;20207;-54
2023/12/07 04:20:05;;;;;;;11.50;9.40;;;7.90;62.00;;;;;;5048673;28;20220;-54
2023/12/07 04:22:31;;;;;;;9.97;8.60;;;7.90;62.30;;;;;;5047286;28;20185;-53
2023/12/07 04:24:56;;;;;;;10.60;9.50;;;7.80;62.20;;;;;;5041334;28;20824;-54
2023/12/07 04:27:22;;;;;;;11.10;9.70;;;7.70;62.40;;;;;;5042724;28;20446;-55
2023/12/07 04:29:47;;;;;;;10.13;9.03;;;7.60;63.00;;;;;;5046040;28;20220;-56
2023/12/07 04:32:13;;;;;;;11.87;8.87;;;7.50;63.20;;;;;;5047235;28;20204;-54
2023/12/07 04:34:38;;;;;;;11.10;9.80;;;7.40;63.80;;;;;;5045644;28;20224;-53
2023/12/07 04:37:04;;;;;;;10.10;8.60;;;7.40;64.10;;;;;;5044520;28;20195;-53
2023/12/07 04:39:30;;;;;;;11.27;8.93;;;7.30;63.80;;;;;;5046647;28;20207;-56
2023/12/07 04:41:55;;;;;;;10.60;9.50;;;7.30;64.30;;;;;;5043652;28;20568;-56
2023/12/07 04:44:21;;;;;;;11.33;10.07;;;7.20;64.00;;;;;;5043539;28;20192;-57
2023/12/07 04:46:46;;;;;;;10.10;8.83;;;7.30;64.50;;;;;;5043001;28;20188;-53
2023/12/07 04:49:12;;;;;;;14.47;9.30;;;7.10;64.30;;;;;;5044514;28;20262;-53
2023/12/07 04:51:38;;;;;;;11.20;8.20;;;7.10;64.80;;;;;;5045985;28;20187;-55
2023/12/07 04:54:03;;;;;;;11.20;8.20;;;7.00;65.30;;;;;;5044413;28;20216;-57
2023/12/07 04:56:29;;;;;;;10.50;8.80;;;7.00;64.90;;;;;;5042799;28;20188;-58
2023/12/07 04:58:54;;;;;;;10.70;8.10;;;7.10;65.00;;;;;;5043450;28;20633;-55
2023/12/07 05:01:20;;;;;;;11.53;9.10;;;7.10;64.50;;;;;;5042341;28;20623;-56
2023/12/07 05:03:45;;;;;;;10.07;8.10;;;7.00;64.90;;;;;;5046973;28;20192;-57
2023/12/07 05:06:11;;;;;;;14.67;9.27;;;6.90;65.60;;;;;;5043226;28;20181;-56
2023/12/07 05:08:39;;;;;;;12.97;8.53;;;6.90;65.70;;;;;;5041636;28;20672;-56
2023/12/07 05:11:06;;;;;;;11.63;8.97;;;7.10;65.10;;;;;;5046073;28;20442;-56
2023/12/07 05:13:33;;;;;;;13.93;8.97;;;7.20;64.60;;;;;;5043866;28;20549;-56
2023/12/07 05:15:59;;;;;;;12.70;9.00;;;7.30;64.50;;;;;;5046240;28;20475;-53
2023/12/07 05:18:25;;;;;;;11.57;8.50;;;7.40;63.90;;;;;;5045600;28;20817;-54
2023/12/07 05:20:51;;;;;;;10.23;8.10;;;7.30;63.30;;;;;;5052648;28;20430;-56
2023/12/07 05:23:17;;;;;;;11.07;8.73;;;7.10;63.80;;;;;;5047881;28;20184;-56
2023/12/07 05:25:43;;;;;;;11.20;8.00;;;7.20;64.30;;;;;;5049559;28;20212;-54
2023/12/07 05:28:08;;;;;;;9.73;8.40;;;7.20;64.00;;;;;;5050394;28;20430;-56
2023/12/07 05:30:36;;;;;;;9.93;8.60;;;7.30;63.80;;;;;;5051939;28;20212;-55
2023/12/07 05:33:03;;;;;;;14.83;9.70;;;7.40;63.40;;;;;;5050514;28;20215;-57
2023/12/07 05:35:28;;;;;;;12.10;9.97;;;7.40;62.90;;;;;;5050625;28;20438;-56
2023/12/07 05:37:54;;;;;;;11.57;9.63;;;7.40;62.50;;;;;;5048794;28;20470;-55
2023/12/07 05:40:19;;;;;;;10.97;9.67;;;7.50;62.50;;;;;;5050253;28;20211;-55
2023/12/07 05:42:49;;;;;;;12.10;9.67;;;7.40;62.40;;;;;;5051143;28;20230;-53
2023/12/07 05:45:15;;;;;;;11.40;9.23;;;7.50;62.40;;;;;;5052702;28;20271;-56
2023/12/07 05:47:41;;;;;;;12.47;9.80;;;7.50;62.20;;;;;;5048493;28;20434;-51
2023/12/07 05:50:07;;;;;;;10.80;9.50;;;7.50;62.00;;;;;;5051841;28;20481;-52
2023/12/07 05:52:33;;;;;;;9.70;8.70;;;7.50;61.90;;;;;;5050654;28;20220;-53
2023/12/07 05:54:59;;;;;;;9.37;7.67;;;7.40;62.30;;;;;;5049815;28;20488;-56
2023/12/07 05:57:24;;;;;;;11.13;8.40;;;7.40;62.70;;;;;;5049434;28;20188;-53
2023/12/07 05:59:50;;;;;;;9.70;8.40;;;7.40;62.60;;;;;;5048124;28;20204;-52
2023/12/07 06:02:15;;;;;;;9.90;8.80;;;7.40;62.70;;;;;;5050552;28;20193;-51
2023/12/07 06:04:41;;;;;;;10.03;7.70;;;7.40;62.80;;;;;;5050407;28;20561;-54
2023/12/07 06:07:08;;;;;;;10.63;8.93;;;7.30;62.90;;;;;;5048860;28;20236;-55
2023/12/07 06:09:34;;;;;;;10.20;8.27;;;7.30;62.90;;;;;;5053047;28;20548;-53
2023/12/07 06:11:59;;;;;;;12.73;8.77;;;7.30;63.20;;;;;;5048478;28;20196;-52
2023/12/07 06:14:25;;;;;;;12.27;9.53;;;7.30;63.10;;;;;;5051213;28;20442;-54
2023/12/07 06:16:51;;;;;;;13.17;9.43;;;7.40;62.80;;;;;;5051940;28;20193;-54
2023/12/07 06:19:16;;;;;;;12.03;9.10;;;7.40;62.30;;;;;;5051531;28;20278;-55
2023/12/07 06:21:44;;;;;;;12.50;8.90;;;7.40;63.00;;;;;;5047123;28;20263;-54
2023/12/07 06:24:09;;;;;;;12.90;8.63;;;7.40;62.20;;;;;;5051644;28;20540;-51
2023/12/07 06:26:35;;;;;;;13.17;8.20;;;7.10;61.50;;;;;;5053912;28;20446;-54
2023/12/07 06:29:01;;;;;;;18.80;9.40;;;7.00;62.90;;;;;;5050973;28;20295;-55
2023/12/07 06:31:27;;;;;;;13.23;8.93;;;7.00;62.90;;;;;;5048606;28;20431;-54
2023/12/07 06:33:53;;;;;;;10.97;8.23;;;7.00;62.80;;;;;;5048057;28;20516;-54
2023/12/07 06:36:23;;;;;;;13.60;7.70;;;6.90;63.00;;;;;;5048883;28;20184;-52
2023/12/07 06:38:48;;;;;;;10.40;8.70;;;6.90;66.00;;;;;;5045548;28;20482;-51
2023/12/07 06:41:15;;;;;;;10.33;7.80;;;7.30;66.50;;;;;;5043534;28;20427;-53
2023/12/07 06:43:41;;;;;;;11.93;8.60;;;7.60;65.80;;;;;;5048112;28;20185;-52
2023/12/07 06:46:07;;;;;;;10.17;8.90;;;7.90;64.70;;;;;;5049564;28;20450;-53
2023/12/07 06:48:33;;;;;;;11.27;8.43;;;8.10;63.90;;;;;;5047045;28;20589;-54
2023/12/07 06:50:58;;;;;;;11.00;8.70;;;8.30;62.70;;;;;;5046432;28;20191;-55
2023/12/07 06:53:24;;;;;;;11.27;8.40;;;8.40;62.00;;;;;;5050455;28;20466;-51
2023/12/07 06:55:50;;;;;;;11.10;8.57;;;8.40;61.20;;;;;;5049550;28;20193;-57
2023/12/07 06:58:15;;;;;;;11.03;8.70;;;8.50;61.10;;;;;;5049191;28;20272;-54
2023/12/07 07:00:41;;;;;;;12.77;8.80;;;8.50;59.80;;;;;;5049141;28;20211;-51
2023/12/07 07:03:06;;;;;;;16.23;8.50;;;8.50;60.00;;;;;;5049101;28;20193;-53
2023/12/07 07:05:32;;;;;;;13.63;9.60;;;8.50;60.30;;;;;;5048422;28;20266;-56
2023/12/07 07:07:57;;;;;;;10.53;7.53;;;8.50;59.70;;;;;;5046770;28;20207;-55
2023/12/07 07:10:24;;;;;;;11.80;7.70;;;8.60;59.70;;;;;;5049473;28;20201;-55
2023/12/07 07:12:50;;;;;;;9.53;7.80;;;8.70;59.40;;;;;;5047101;28;20242;-55
2023/12/07 07:15:16;;;;;;;10.40;9.20;;;8.70;58.90;;;;;;5048052;28;21817;-54
2023/12/07 07:17:42;;;;;;;11.00;8.67;;;8.80;58.60;;;;;;5046390;28;20789;-56
2023/12/07 07:20:08;;;;;;;12.33;9.23;;;9.00;59.00;;;;;;5045870;28;20506;-55
2023/12/07 07:22:34;;;;;;;11.63;7.97;;;9.30;57.60;;;;;;5048131;28;20192;-51
2023/12/07 07:25:00;;;;;;;10.63;9.50;;;9.70;56.70;;;;;;5045836;28;20553;-53
2023/12/07 07:27:25;;;;;;;11.67;8.70;;;10.30;54.70;;;;;;5046021;28;20466;-55
2023/12/07 07:29:51;;;;;;;9.67;8.67;;;11.00;53.10;;;;;;5042671;28;20204;-55
2023/12/07 07:32:17;;;;;;;13.63;8.93;;;11.60;51.50;;;;;;5045843;28;20244;-52
2023/12/07 07:34:43;;;;;;;9.97;8.93;;;12.30;49.60;;;;;;5046616;28;20489;-51
2023/12/07 07:37:08;;;;;;;12.63;9.70;;;13.00;48.00;;;;;;5048306;28;20207;-57
2023/12/07 07:39:34;;;;;;;14.30;8.87;;;13.40;47.00;;;;;;5043009;28;20583;-56
2023/12/07 07:42:00;;;;;;;12.00;9.60;;;13.70;45.70;;;;;;5045905;28;20185;-55
2023/12/07 07:44:26;;;;;;;11.30;9.63;;;14.00;45.00;;;;;;5046489;28;20462;-56
2023/12/07 07:46:51;;;;;;;9.57;8.00;;;14.40;44.20;;;;;;5043733;28;20196;-55
2023/12/07 07:49:17;;;;;;;9.80;8.80;;;14.70;43.10;;;;;;5047003;28;20212;-56
2023/12/07 07:51:42;;;;;;;9.30;8.40;;;14.80;42.60;;;;;;5044072;28;20184;-53
2023/12/07 07:54:08;;;;;;;8.73;7.93;;;14.60;42.40;;;;;;5035707;28;20224;-57
2023/12/07 07:56:33;;;;;;;9.87;8.80;;;14.00;43.40;;;;;;5044797;28;20279;-56
2023/12/07 07:59:00;;;;;;;11.27;8.97;;;13.50;44.20;;;;;;5042326;28;20227;-55
2023/12/07 08:01:26;;;;;;;9.30;8.30;;;13.00;45.20;;;;;;5044674;28;20730;-55
2023/12/07 08:03:52;;;;;;;13.20;10.07;;;12.30;46.00;;;;;;5046182;28;20451;-57
2023/12/07 08:06:18;;;;;;;10.50;9.03;;;11.80;47.20;;;;;;5042843;28;20465;-54
2023/12/07 08:08:44;;;;;;;11.90;8.60;;;11.30;48.40;;;;;;5041832;28;20224;-57
2023/12/07 08:11:09;;;;;;;10.63;8.90;;;11.00;49.30;;;;;;5043796;28;20447;-53
2023/12/07 08:13:35;;;;;;;10.03;8.93;;;10.80;50.00;;;;;;5047024;28;20240;-56
2023/12/07 08:16:01;;;;;;;10.03;8.90;;;10.60;50.30;;;;;;5045493;28;20276;-54
2023/12/07 08:18:27;;;;;;;11.30;9.37;;;10.40;50.70;;;;;;5042418;28;20262;-56
2023/12/07 08:20:53;;;;;;;11.17;9.60;;;10.30;51.10;;;;;;5046307;28;20530;-54
2023/12/07 08:23:18;;;;;;;10.47;9.30;;;10.20;51.30;;;;;;5041226;28;20530;-57
2023/12/07 08:25:44;;;;;;;9.70;8.73;;;10.10;51.50;;;;;;5043545;28;20358;-58
2023/12/07 08:28:09;;;;;;;10.80;9.20;;;10.00;51.60;;;;;;5038057;28;20549;-58
2023/12/07 08:30:36;;;;;;;10.60;9.23;;;9.70;53.00;;;;;;5037655;28;20204;-54
2023/12/07 08:33:01;;;;;;;12.27;8.70;;;9.00;54.80;;;;;;5035659;28;20243;-56
2023/12/07 08:35:27;;;;;;;14.77;8.50;;;8.60;55.60;;;;;;5038064;28;20495;-57
2023/12/07 08:37:53;;;;;;;11.93;8.60;;;7.70;57.60;;;;;;5037930;28;20196;-55
2023/12/07 08:40:19;;;;;;;14.27;9.30;;;7.10;60.10;;;;;;5039117;28;20311;-54
2023/12/07 08:42:46;;;;;;;14.90;9.33;;;7.30;60.80;;;;;;5042574;28;20184;-55
2023/12/07 08:45:13;;;;;;;11.93;10.00;;;7.60;60.20;;;;;;5042935;28;20434;-54
2023/12/07 08:47:39;;;;;;;12.93;9.20;;;7.50;60.00;;;;;;5043922;28;20484;-58
2023/12/07 08:50:07;;;;;;;11.43;9.93;;;7.60;60.10;;;;;;5044058;28;20846;-57
2023/12/07 08:52:33;;;;;;;13.07;9.13;;;7.70;60.10;;;;;;5045927;28;20286;-58
2023/12/07 08:54:58;;;;;;;10.10;9.10;;;7.70;59.90;;;;;;5040300;28;20962;-57
2023/12/07 08:57:24;;;;;;;12.50;10.00;;;7.90;60.00;;;;;;5041365;28;20180;-57
2023/12/07 08:59:49;;;;;;;11.47;10.20;;;7.30;60.10;;;;;;5044845;28;20299;-53
2023/12/07 09:02:15;;;;;;;12.30;10.90;;;7.10;62.60;;;;;;5043600;28;20247;-57
2023/12/07 09:04:40;;;;;;;11.60;9.40;;;7.10;63.00;;;;;;5047514;28;20200;-56
2023/12/07 09:07:06;;;;;;;11.13;9.83;;;7.00;63.30;;;;;;5039640;28;20215;-55
2023/12/07 09:09:32;;;;;;;15.87;10.47;;;7.10;64.30;;;;;;5043420;28;20270;-56
2023/12/07 09:11:58;;;;;;;15.23;11.27;;;6.90;63.90;;;;;;5036478;28;20197;-53
2023/12/07 09:14:23;;;;;;;17.17;9.97;;;6.90;65.50;;;;;;5037834;28;20439;-57
2023/12/07 09:16:49;;;;;;;11.67;10.23;;;7.10;64.90;;;;;;5034479;28;20190;-57
2023/12/07 09:19:14;;;;;;;11.77;9.70;;;7.20;64.20;;;;;;5039335;28;20207;-58
2023/12/07 09:21:41;;;;;;;12.53;9.23;;;7.40;63.90;;;;;;5045887;28;20224;-56
2023/12/07 09:24:07;;;;;;;11.13;9.00;;;7.60;63.60;;;;;;5044619;28;20219;-58
2023/12/07 09:26:33;;;;;;;12.93;9.90;;;7.80;63.10;;;;;;5042743;28;20475;-58
2023/12/07 09:28:58;;;;;;;12.17;9.30;;;7.50;62.90;;;;;;5039580;28;20212;-56
2023/12/07 09:31:24;;;;;;;12.03;9.53;;;7.40;64.20;;;;;;5040686;28;20474;-52
2023/12/07 09:33:49;;;;;;;11.70;9.13;;;7.60;64.00;;;;;;5041051;28;20276;-56
2023/12/07 09:36:18;;;;;;;11.60;10.27;;;7.80;65.00;;;;;;5041686;28;20239;-56
2023/12/07 09:38:44;;;;;;;10.47;9.30;;;8.20;64.70;;;;;;5043916;28;20197;-56
2023/12/07 09:41:11;;;;;;;10.27;9.07;;;8.20;63.20;;;;;;5045032;28;20472;-55
2023/12/07 09:43:36;;;;;;;13.17;9.80;;;8.50;63.80;;;;;;5046471;28;20439;-56
2023/12/07 09:46:02;;;;;;;10.50;9.13;;;8.90;60.80;;;;;;5045110;28;20435;-54
2023/12/07 09:48:28;;;;;;;10.90;8.53;;;9.20;60.90;;;;;;5045315;28;20238;-56
2023/12/07 09:50:56;;;;;;;11.60;10.40;;;9.60;59.60;;;;;;5044665;28;21001;-57
2023/12/07 09:53:22;;;;;;;11.53;9.37;;;10.00;57.30;;;;;;5044290;28;20258;-56
2023/12/07 09:55:47;;;;;;;11.90;9.00;;;10.10;56.80;;;;;;5044049;28;20455;-55
2023/12/07 09:58:14;;;;;;;10.13;9.10;;;10.20;56.70;;;;;;5044443;28;20419;-57
2023/12/07 10:00:39;;;;;;;10.80;9.70;;;10.30;56.90;;;;;;5042837;28;20224;-56
2023/12/07 10:03:09;;;;;;;12.90;10.97;;;10.60;56.10;;;;;;5044560;28;20818;-55
2023/12/07 10:05:52;;;;;;;10.10;9.10;;;10.60;56.20;;;;;;5044319;28;20196;-55
2023/12/07 10:08:26;;;;;;;10.03;9.03;;;11.00;56.10;;;;;;5041477;28;20444;-59
2023/12/07 10:11:02;;;;;;;11.07;9.23;;;11.30;55.60;;;;;;5047079;28;20445;-55
2023/12/07 10:13:29;;;;;;;11.50;8.77;;;11.40;54.20;;;;;;5042926;28;20478;-55
2023/12/07 10:16:08;;;;;;;10.50;9.40;;;11.60;54.20;;;;;;5045086;28;20439;-53
2023/12/07 10:18:34;;;;;;;11.10;9.90;;;11.80;53.90;;;;;;5044233;28;20522;-56
2023/12/07 10:21:00;;;;;;;10.90;9.80;;;12.00;53.50;;;;;;5041010;28;20926;-57
2023/12/07 10:23:27;;;;;;;13.50;10.77;;;12.20;53.40;;;;;;5045571;28;20477;-57
2023/12/07 10:25:53;;;;;;;10.47;9.37;;;12.30;52.70;;;;;;5039571;28;20268;-57
2023/12/07 10:28:19;;;;;;;11.63;8.80;;;12.20;51.90;;;;;;5045687;28;20941;-57
2023/12/07 10:30:45;;;;;;;10.83;9.47;;;12.10;52.00;;;;;;5045511;28;20775;-58
2023/12/07 10:33:12;;;;;;;10.23;9.23;;;11.90;52.60;;;;;;5042367;28;20478;-56
2023/12/07 10:35:40;;;;;;;10.37;9.17;;;11.90;53.00;;;;;;5043567;28;20450;-57
2023/12/07 10:38:06;;;;;;;10.13;9.00;;;12.00;53.20;;;;;;5040195;28;20431;-55
2023/12/07 10:40:31;;;;;;;11.50;9.20;;;11.20;52.30;;;;;;5043431;28;20485;-58
2023/12/07 10:42:58;;;;;;;11.30;8.63;;;11.10;54.50;;;;;;5045879;28;20807;-57
2023/12/07 10:45:27;;;;;;;9.87;8.90;;;11.30;54.10;;;;;;5041217;28;20307;-56
2023/12/07 10:47:56;;;;;;;10.60;8.33;;;11.70;53.90;;;;;;5041787;28;20499;-58
2023/12/07 10:50:23;;;;;;;13.60;8.67;;;12.00;53.20;;;;;;5037998;28;20455;-56
2023/12/07 10:52:55;;;;;;;10.70;9.53;;;12.30;51.70;;;;;;5045481;28;20466;-57
2023/12/07 10:55:24;;;;;;;9.93;8.90;;;12.30;51.40;;;;;;5039095;28;20811;-57
2023/12/07 10:57:53;;;;;;;9.47;8.37;;;12.20;51.50;;;;;;5037877;28;20485;-56
2023/12/07 11:00:19;;;;;;;9.27;8.37;;;12.40;51.30;;;;;;5044746;28;20471;-57
2023/12/07 11:02:46;;;;;;;9.17;8.27;;;12.30;51.10;;;;;;5039657;28;20990;-56
2023/12/07 11:05:12;;;;;;;9.93;8.03;;;12.60;50.90;;;;;;5047627;28;20957;-54
2023/12/07 11:07:48;;;;;;;9.83;8.83;;;13.20;49.80;;;;;;5040016;28;20428;-55
2023/12/07 11:10:25;;;;;;;10.70;8.50;;;13.30;49.10;;;;;;5043221;28;20199;-56
2023/12/07 11:13:15;;;;;;;9.60;7.87;;;13.40;49.00;;;;;;5047704;28;20482;-54
2023/12/07 11:15:41;;;;;;;9.10;8.13;;;13.40;48.70;;;;;;5042891;28;20860;-56
2023/12/07 11:18:06;;;;;;;9.00;7.60;;;13.30;48.80;;;;;;5047622;28;20443;-53
2023/12/07 11:20:44;;;;;;;7.97;7.17;;;13.10;49.00;;;;;;5041737;28;20520;-55
2023/12/07 11:23:10;;;;;;;8.93;7.77;;;12.90;49.50;;;;;;5044246;28;20304;-52
2023/12/07 11:25:39;;;;;;;9.33;7.30;;;12.40;49.90;;;;;;5042507;28;20514;-57
2023/12/07 11:28:07;;;;;;;8.70;7.83;;;12.30;51.30;;;;;;5047597;28;20446;-54
2023/12/07 11:30:35;;;;;;;9.10;8.20;;;12.10;50.90;;;;;;5045770;28;20539;-57
2023/12/07 11:33:04;;;;;;;9.77;8.10;;;12.00;51.00;;;;;;5047512;28;20475;-51
2023/12/07 11:35:29;;;;;;;9.50;8.47;;;11.90;51.30;;;;;;5045035;28;20439;-54
2023/12/07 11:38:03;;;;;;;8.57;7.67;;;11.90;51.60;;;;;;5045556;28;20427;-55
2023/12/07 11:40:30;;;;;;;10.20;8.13;;;11.90;51.20;;;;;;5044216;28;20673;-51
2023/12/07 11:42:56;;;;;;;8.60;7.70;;;12.10;51.70;;;;;;5048140;28;20946;-51
2023/12/07 11:45:37;;;;;;;8.60;7.70;;;12.10;50.80;;;;;;5045981;28;20435;-54
2023/12/07 11:48:11;;;;;;;8.23;7.30;;;12.20;50.70;;;;;;5044672;28;20190;-54
2023/12/07 11:50:52;;;;;;;8.97;7.97;;;12.40;51.80;;;;;;5045715;28;20443;-55
2023/12/07 11:53:29;;;;;;;7.13;6.37;;;12.40;50.50;;;;;;5040757;28;20883;-52
2023/12/07 11:55:55;;;;;;;9.23;6.53;;;12.40;50.10;;;;;;5042791;28;20430;-54
2023/12/07 11:58:21;;;;;;;7.33;6.63;;;12.40;49.80;;;;;;5044996;28;21025;-57
2023/12/07 12:00:46;;;;;;;6.80;6.10;;;12.40;49.70;;;;;;5046202;28;20442;-54
2023/12/07 12:03:15;;;;;;;7.40;6.17;;;12.50;49.20;;;;;;5045336;28;20196;-55
2023/12/07 12:05:43;;;;;;;9.10;6.73;;;12.60;48.50;;;;;;5047524;28;20181;-53
2023/12/07 12:08:10;;;;;;;8.70;6.50;;;12.70;48.40;;;;;;5042686;28;20439;-52
2023/12/07 12:10:36;;;;;;;8.97;6.87;;;12.60;48.70;;;;;;5045785;28;20557;-56
2023/12/07 12:13:03;;;;;;;8.27;6.83;;;12.70;48.80;;;;;;5043588;28;20556;-55
2023/12/07 12:15:29;;;;;;;6.17;5.60;;;12.80;47.80;;;;;;5045772;28;20439;-55
2023/12/07 12:17:56;;;;;;;10.03;5.90;;;12.90;47.80;;;;;;5043566;28;20451;-54
2023/12/07 12:20:22;;;;;;;9.20;6.70;;;12.90;47.60;;;;;;5045695;28;20258;-54
2023/12/07 12:22:47;;;;;;;8.33;6.77;;;13.00;47.20;;;;;;5043022;28;20851;-56
2023/12/07 12:25:14;;;;;;;7.33;6.53;;;12.80;47.90;;;;;;5045241;28;20532;-54
2023/12/07 12:27:40;;;;;;;9.03;6.50;;;12.80;47.70;;;;;;5045146;28;20189;-55
2023/12/07 12:30:07;;;;;;;9.63;6.10;;;12.90;47.40;;;;;;5045865;28;20875;-56
2023/12/07 12:32:46;;;;;;;6.93;6.23;;;13.20;47.50;;;;;;5044758;28;20506;-57
2023/12/07 12:35:14;;;;;;;6.70;6.10;;;13.30;46.20;;;;;;5039334;28;20447;-54
2023/12/07 12:37:42;;;;;;;8.43;5.53;;;13.20;45.80;;;;;;5040178;28;20962;-57
2023/12/07 12:40:08;;;;;;;6.40;5.80;;;13.20;45.80;;;;;;5042409;28;20474;-58
2023/12/07 12:42:37;;;;;;;6.00;5.00;;;13.20;46.10;;;;;;5040383;28;20447;-56